This is the latest recevied weather packets stored in our database for station/object VE3DVC. If no packets are shown the sender has not sent any weather packets the latest 10 day(s).
| Time | Temp. | Humidity | Pressure | Rain* | Wind** | Luminosity | Snow |
|---|---|---|---|---|---|---|---|
| 1777580913 | 9.44° C | 75% | 1012.2 hPa | 0 mm | - | - | - |
| 1777580193 | 10° C | 75% | 1012.1 hPa | 0 mm | - | - | - |
| 1777579473 | 10° C | 72% | 1012.1 hPa | 0 mm | - | - | - |
| 1777578753 | 10° C | 71% | 1012.1 hPa | 0 mm | - | - | - |
| 1777578033 | 10° C | 70% | 1012.1 hPa | 0 mm | - | - | - |
| 1777577313 | 10° C | 73% | 1012 hPa | 0 mm | - | - | - |
| 1777576283 | 10° C | 75% | 1012.1 hPa | 0 mm | - | - | - |
| 1777575563 | 10° C | 74% | 1012.2 hPa | 0 mm | - | - | - |
| 1777574843 | 10° C | 74% | 1012.2 hPa | 0 mm | - | - | - |
| 1777574123 | 8.89° C | 77% | 1012.3 hPa | 0 mm | - | - | - |
| 1777572685 | 8.33° C | 79% | 1012.4 hPa | 0 mm | - | - | - |
| 1777571965 | 8.33° C | 79% | 1012.5 hPa | 0 mm | - | - | - |
| 1777571245 | 8.33° C | 79% | 1012.4 hPa | 0 mm | - | - | - |
| 1777570525 | 8.89° C | 81% | 1012.2 hPa | 0 mm | - | - | - |
| 1777569804 | 8.89° C | 81% | 1012.2 hPa | 0 mm | - | - | - |
| 1777569084 | 8.33° C | 84% | 1012.2 hPa | 0 mm | - | - | - |
| 1777568365 | 8.33° C | 85% | 1012.3 hPa | 0 mm | - | - | - |
| 1777567645 | 7.78° C | 84% | 1012.2 hPa | 0 mm | - | - | - |
| 1777566301 | 8.89° C | 78% | 1012.3 hPa | 0 mm | - | - | - |
| 1777565582 | 9.44° C | 72% | 1012.1 hPa | 0 mm | - | - | - |
| 1777564526 | 9.44° C | 72% | 1012.1 hPa | 0 mm | - | - | - |
| 1777563806 | 9.44° C | 73% | 1011.9 hPa | 0 mm | - | - | - |
| 1777563087 | 9.44° C | 73% | 1012 hPa | 0 mm | - | - | - |
| 1777562367 | 9.44° C | 75% | 1011.9 hPa | 0 mm | - | - | - |
| 1777561647 | 8.89° C | 79% | 1011.7 hPa | 0 mm | - | - | - |
* Rain latest hour (hover to see other rain measurements)
** Current wind speed in m/s (hover to see current wind gust speed)